sensor_id;sensor_type;location;lat;lon;timestamp;temperature;humidity
22813;DHT22;11573;51.334;3.244;2022-11-20T00:01:21;4.00;99.90
22813;DHT22;11573;51.334;3.244;2022-11-20T00:03:50;3.90;99.90
22813;DHT22;11573;51.334;3.244;2022-11-20T00:06:18;3.90;99.90
22813;DHT22;11573;51.334;3.244;2022-11-20T00:08:46;3.90;99.90
22813;DHT22;11573;51.334;3.244;2022-11-20T00:11:15;3.80;99.90
22813;DHT22;11573;51.334;3.244;2022-11-20T00:13:48;3.70;99.90
22813;DHT22;11573;51.334;3.244;2022-11-20T00:16:17;3.70;99.90
22813;DHT22;11573;51.334;3.244;2022-11-20T00:18:45;3.70;99.90
22813;DHT22;11573;51.334;3.244;2022-11-20T00:21:18;3.70;99.90
22813;DHT22;11573;51.334;3.244;2022-11-20T00:23:49;3.70;99.90
22813;DHT22;11573;51.334;3.244;2022-11-20T00:26:17;3.70;99.90
22813;DHT22;11573;51.334;3.244;2022-11-20T00:28:50;3.60;99.90
22813;DHT22;11573;51.334;3.244;2022-11-20T00:31:18;3.60;99.90
22813;DHT22;11573;51.334;3.244;2022-11-20T00:33:45;3.70;99.90
22813;DHT22;11573;51.334;3.244;2022-11-20T00:36:15;3.70;99.90
22813;DHT22;11573;51.334;3.244;2022-11-20T00:38:43;3.70;99.90
22813;DHT22;11573;51.334;3.244;2022-11-20T00:41:15;3.70;99.90
22813;DHT22;11573;51.334;3.244;2022-11-20T00:43:42;3.90;99.90
22813;DHT22;11573;51.334;3.244;2022-11-20T00:46:12;4.00;99.90
22813;DHT22;11573;51.334;3.244;2022-11-20T00:48:39;4.10;99.90
22813;DHT22;11573;51.334;3.244;2022-11-20T00:51:07;4.20;99.90
22813;DHT22;11573;51.334;3.244;2022-11-20T00:53:34;4.10;99.90
22813;DHT22;11573;51.334;3.244;2022-11-20T00:56:03;4.10;99.90
22813;DHT22;11573;51.334;3.244;2022-11-20T00:58:33;4.20;99.90
22813;DHT22;11573;51.334;3.244;2022-11-20T01:01:09;4.20;99.90
22813;DHT22;11573;51.334;3.244;2022-11-20T01:03:38;4.30;99.90
22813;DHT22;11573;51.334;3.244;2022-11-20T01:06:09;4.40;99.90
22813;DHT22;11573;51.334;3.244;2022-11-20T01:08:36;4.40;99.90
22813;DHT22;11573;51.334;3.244;2022-11-20T01:11:12;4.40;99.90
22813;DHT22;11573;51.334;3.244;2022-11-20T01:13:39;4.40;99.90
22813;DHT22;11573;51.334;3.244;2022-11-20T01:16:10;4.40;99.90
22813;DHT22;11573;51.334;3.244;2022-11-20T01:18:39;4.30;99.90
22813;DHT22;11573;51.334;3.244;2022-11-20T01:21:16;4.30;99.90
22813;DHT22;11573;51.334;3.244;2022-11-20T01:23:44;4.30;99.90
22813;DHT22;11573;51.334;3.244;2022-11-20T01:26:13;4.50;99.90
22813;DHT22;11573;51.334;3.244;2022-11-20T01:28:41;4.60;99.90
22813;DHT22;11573;51.334;3.244;2022-11-20T01:31:14;4.60;99.90
22813;DHT22;11573;51.334;3.244;2022-11-20T01:33:42;4.70;99.90
22813;DHT22;11573;51.334;3.244;2022-11-20T01:36:09;4.70;99.90
22813;DHT22;11573;51.334;3.244;2022-11-20T01:38:36;4.70;99.90
22813;DHT22;11573;51.334;3.244;2022-11-20T01:41:04;4.70;99.90
22813;DHT22;11573;51.334;3.244;2022-11-20T01:43:32;4.60;99.90
22813;DHT22;11573;51.334;3.244;2022-11-20T01:46:17;4.70;99.90
22813;DHT22;11573;51.334;3.244;2022-11-20T01:49:11;4.70;99.90
22813;DHT22;11573;51.334;3.244;2022-11-20T01:51:47;4.70;99.90
22813;DHT22;11573;51.334;3.244;2022-11-20T01:54:19;4.80;99.90
22813;DHT22;11573;51.334;3.244;2022-11-20T01:56:48;4.80;99.90
22813;DHT22;11573;51.334;3.244;2022-11-20T01:59:18;4.80;99.90
22813;DHT22;11573;51.334;3.244;2022-11-20T02:01:46;4.70;99.90
22813;DHT22;11573;51.334;3.244;2022-11-20T02:04:14;4.70;99.90
22813;DHT22;11573;51.334;3.244;2022-11-20T02:07:00;4.70;99.90
22813;DHT22;11573;51.334;3.244;2022-11-20T02:09:28;4.60;99.90
22813;DHT22;11573;51.334;3.244;2022-11-20T02:11:56;4.60;99.90
22813;DHT22;11573;51.334;3.244;2022-11-20T02:14:24;4.70;99.90
22813;DHT22;11573;51.334;3.244;2022-11-20T02:16:52;4.70;99.90
22813;DHT22;11573;51.334;3.244;2022-11-20T02:19:31;4.80;99.90
22813;DHT22;11573;51.334;3.244;2022-11-20T02:22:08;4.80;99.90
22813;DHT22;11573;51.334;3.244;2022-11-20T02:24:37;4.90;99.90
22813;DHT22;11573;51.334;3.244;2022-11-20T02:27:13;4.90;99.90
22813;DHT22;11573;51.334;3.244;2022-11-20T02:32:25;4.90;99.90
22813;DHT22;11573;51.334;3.244;2022-11-20T02:34:53;4.90;99.90
22813;DHT22;11573;51.334;3.244;2022-11-20T02:37:20;5.00;99.90
22813;DHT22;11573;51.334;3.244;2022-11-20T02:39:49;4.80;99.90
22813;DHT22;11573;51.334;3.244;2022-11-20T02:42:18;4.80;99.90
22813;DHT22;11573;51.334;3.244;2022-11-20T02:44:45;4.70;99.90
22813;DHT22;11573;51.334;3.244;2022-11-20T02:47:12;4.80;99.90
22813;DHT22;11573;51.334;3.244;2022-11-20T02:49:38;4.90;99.90
22813;DHT22;11573;51.334;3.244;2022-11-20T02:52:05;4.90;99.90
22813;DHT22;11573;51.334;3.244;2022-11-20T02:54:32;4.90;99.90
22813;DHT22;11573;51.334;3.244;2022-11-20T02:56:59;4.90;99.90
22813;DHT22;11573;51.334;3.244;2022-11-20T02:59:26;4.90;99.90
22813;DHT22;11573;51.334;3.244;2022-11-20T03:01:53;4.90;99.90
22813;DHT22;11573;51.334;3.244;2022-11-20T03:04:20;5.00;99.90
22813;DHT22;11573;51.334;3.244;2022-11-20T03:06:47;5.00;99.90
22813;DHT22;11573;51.334;3.244;2022-11-20T03:09:14;4.90;99.90
22813;DHT22;11573;51.334;3.244;2022-11-20T03:11:41;5.00;99.90
22813;DHT22;11573;51.334;3.244;2022-11-20T03:14:07;5.00;99.90
22813;DHT22;11573;51.334;3.244;2022-11-20T03:16:35;5.00;99.90
22813;DHT22;11573;51.334;3.244;2022-11-20T03:19:02;5.00;99.90
22813;DHT22;11573;51.334;3.244;2022-11-20T03:21:29;4.90;99.90
22813;DHT22;11573;51.334;3.244;2022-11-20T03:23:56;4.90;99.90
22813;DHT22;11573;51.334;3.244;2022-11-20T03:26:25;4.90;99.90
22813;DHT22;11573;51.334;3.244;2022-11-20T03:28:54;4.90;99.90
22813;DHT22;11573;51.334;3.244;2022-11-20T03:31:26;4.80;99.90
22813;DHT22;11573;51.334;3.244;2022-11-20T03:33:53;4.90;99.90
22813;DHT22;11573;51.334;3.244;2022-11-20T03:36:21;4.90;99.90
22813;DHT22;11573;51.334;3.244;2022-11-20T03:38:48;4.90;99.90
22813;DHT22;11573;51.334;3.244;2022-11-20T03:41:20;4.90;99.90
22813;DHT22;11573;51.334;3.244;2022-11-20T03:46:16;4.80;99.90
22813;DHT22;11573;51.334;3.244;2022-11-20T03:48:43;4.90;99.90
22813;DHT22;11573;51.334;3.244;2022-11-20T03:51:20;4.80;99.90
22813;DHT22;11573;51.334;3.244;2022-11-20T03:53:48;4.80;99.90
22813;DHT22;11573;51.334;3.244;2022-11-20T03:56:17;4.70;99.90
22813;DHT22;11573;51.334;3.244;2022-11-20T03:58:44;4.80;99.90
22813;DHT22;11573;51.334;3.244;2022-11-20T04:01:20;4.80;99.90
22813;DHT22;11573;51.334;3.244;2022-11-20T04:03:48;4.80;99.90
22813;DHT22;11573;51.334;3.244;2022-11-20T04:06:21;4.90;99.90
22813;DHT22;11573;51.334;3.244;2022-11-20T04:08:49;4.80;99.90
22813;DHT22;11573;51.334;3.244;2022-11-20T04:11:30;4.90;99.90
22813;DHT22;11573;51.334;3.244;2022-11-20T04:14:00;4.90;99.90
22813;DHT22;11573;51.334;3.244;2022-11-20T04:16:31;4.80;99.90
22813;DHT22;11573;51.334;3.244;2022-11-20T04:18:59;4.90;99.90
22813;DHT22;11573;51.334;3.244;2022-11-20T04:21:27;5.00;99.90
22813;DHT22;11573;51.334;3.244;2022-11-20T04:23:54;5.00;99.90
22813;DHT22;11573;51.334;3.244;2022-11-20T04:26:23;5.00;99.90
22813;DHT22;11573;51.334;3.244;2022-11-20T04:28:51;4.90;99.90
22813;DHT22;11573;51.334;3.244;2022-11-20T04:31:20;4.70;99.90
22813;DHT22;11573;51.334;3.244;2022-11-20T04:33:47;4.60;99.90
22813;DHT22;11573;51.334;3.244;2022-11-20T04:36:16;4.50;99.90
22813;DHT22;11573;51.334;3.244;2022-11-20T04:38:44;4.40;99.90
22813;DHT22;11573;51.334;3.244;2022-11-20T04:41:17;4.20;99.90
22813;DHT22;11573;51.334;3.244;2022-11-20T04:43:51;4.20;99.90
22813;DHT22;11573;51.334;3.244;2022-11-20T04:46:20;4.10;99.90
22813;DHT22;11573;51.334;3.244;2022-11-20T04:48:47;4.10;99.90
22813;DHT22;11573;51.334;3.244;2022-11-20T04:51:14;4.10;99.90
22813;DHT22;11573;51.334;3.244;2022-11-20T04:53:41;4.10;99.90
22813;DHT22;11573;51.334;3.244;2022-11-20T04:56:10;4.10;99.90
22813;DHT22;11573;51.334;3.244;2022-11-20T04:58:37;4.10;99.90
22813;DHT22;11573;51.334;3.244;2022-11-20T05:01:14;4.20;99.90
22813;DHT22;11573;51.334;3.244;2022-11-20T05:03:42;4.20;99.90
22813;DHT22;11573;51.334;3.244;2022-11-20T05:06:12;4.20;99.90
22813;DHT22;11573;51.334;3.244;2022-11-20T05:08:39;4.30;99.90
22813;DHT22;11573;51.334;3.244;2022-11-20T05:11:11;4.30;99.90
22813;DHT22;11573;51.334;3.244;2022-11-20T05:13:39;4.40;99.90
22813;DHT22;11573;51.334;3.244;2022-11-20T05:16:18;4.50;99.90
22813;DHT22;11573;51.334;3.244;2022-11-20T05:18:45;4.50;99.90
22813;DHT22;11573;51.334;3.244;2022-11-20T05:21:13;4.60;99.90
22813;DHT22;11573;51.334;3.244;2022-11-20T05:23:41;4.60;99.90
22813;DHT22;11573;51.334;3.244;2022-11-20T05:26:13;4.70;99.90
22813;DHT22;11573;51.334;3.244;2022-11-20T05:28:40;4.60;99.90
22813;DHT22;11573;51.334;3.244;2022-11-20T05:31:11;4.70;99.90
22813;DHT22;11573;51.334;3.244;2022-11-20T05:33:43;4.80;99.90
22813;DHT22;11573;51.334;3.244;2022-11-20T05:36:14;4.80;99.90
22813;DHT22;11573;51.334;3.244;2022-11-20T05:38:41;4.80;99.90
22813;DHT22;11573;51.334;3.244;2022-11-20T05:41:12;4.80;99.90
22813;DHT22;11573;51.334;3.244;2022-11-20T05:43:40;4.90;99.90
22813;DHT22;11573;51.334;3.244;2022-11-20T05:46:09;5.00;99.90
22813;DHT22;11573;51.334;3.244;2022-11-20T05:48:37;5.00;99.90
22813;DHT22;11573;51.334;3.244;2022-11-20T05:51:06;5.10;99.90
22813;DHT22;11573;51.334;3.244;2022-11-20T05:53:34;5.10;99.90
22813;DHT22;11573;51.334;3.244;2022-11-20T05:56:03;5.10;99.90
22813;DHT22;11573;51.334;3.244;2022-11-20T05:58:31;5.10;99.90
22813;DHT22;11573;51.334;3.244;2022-11-20T06:01:18;5.10;99.90
22813;DHT22;11573;51.334;3.244;2022-11-20T06:03:45;5.20;99.90
22813;DHT22;11573;51.334;3.244;2022-11-20T06:06:15;5.20;99.90
22813;DHT22;11573;51.334;3.244;2022-11-20T06:08:42;5.20;99.90
22813;DHT22;11573;51.334;3.244;2022-11-20T06:11:11;5.20;99.90
22813;DHT22;11573;51.334;3.244;2022-11-20T06:13:39;5.30;99.90
22813;DHT22;11573;51.334;3.244;2022-11-20T06:16:09;5.30;99.90
22813;DHT22;11573;51.334;3.244;2022-11-20T06:18:36;5.30;99.90
22813;DHT22;11573;51.334;3.244;2022-11-20T06:21:09;5.30;99.90
22813;DHT22;11573;51.334;3.244;2022-11-20T06:23:37;5.30;99.90
22813;DHT22;11573;51.334;3.244;2022-11-20T06:26:06;5.30;99.90
22813;DHT22;11573;51.334;3.244;2022-11-20T06:28:33;5.30;99.90
22813;DHT22;11573;51.334;3.244;2022-11-20T06:31:00;5.30;99.90
22813;DHT22;11573;51.334;3.244;2022-11-20T06:33:28;5.30;99.90
22813;DHT22;11573;51.334;3.244;2022-11-20T06:35:59;5.40;99.90
22813;DHT22;11573;51.334;3.244;2022-11-20T06:38:33;5.50;99.90
22813;DHT22;11573;51.334;3.244;2022-11-20T06:40:59;5.50;99.90
22813;DHT22;11573;51.334;3.244;2022-11-20T06:43:28;5.50;99.90
22813;DHT22;11573;51.334;3.244;2022-11-20T06:45:57;5.60;99.90
22813;DHT22;11573;51.334;3.244;2022-11-20T06:48:26;5.50;99.90
22813;DHT22;11573;51.334;3.244;2022-11-20T06:50:54;5.60;99.90
22813;DHT22;11573;51.334;3.244;2022-11-20T06:53:21;5.70;99.90
22813;DHT22;11573;51.334;3.244;2022-11-20T06:55:49;5.60;99.90
22813;DHT22;11573;51.334;3.244;2022-11-20T06:58:17;5.70;99.90
22813;DHT22;11573;51.334;3.244;2022-11-20T07:00:44;5.70;99.90
22813;DHT22;11573;51.334;3.244;2022-11-20T07:03:12;5.70;99.90
22813;DHT22;11573;51.334;3.244;2022-11-20T07:05:39;5.70;99.90
22813;DHT22;11573;51.334;3.244;2022-11-20T07:08:07;5.70;99.90
22813;DHT22;11573;51.334;3.244;2022-11-20T07:10:34;5.80;99.90
22813;DHT22;11573;51.334;3.244;2022-11-20T07:13:01;5.80;99.90
22813;DHT22;11573;51.334;3.244;2022-11-20T07:15:28;5.90;99.90
22813;DHT22;11573;51.334;3.244;2022-11-20T07:17:55;5.90;99.90
22813;DHT22;11573;51.334;3.244;2022-11-20T07:20:22;5.80;99.90
22813;DHT22;11573;51.334;3.244;2022-11-20T07:22:56;5.90;99.90
22813;DHT22;11573;51.334;3.244;2022-11-20T07:25:25;5.90;99.90
22813;DHT22;11573;51.334;3.244;2022-11-20T07:27:56;5.90;99.90
22813;DHT22;11573;51.334;3.244;2022-11-20T07:30:23;6.00;99.90
22813;DHT22;11573;51.334;3.244;2022-11-20T07:32:53;6.00;99.90
22813;DHT22;11573;51.334;3.244;2022-11-20T07:35:21;6.00;99.90
22813;DHT22;11573;51.334;3.244;2022-11-20T07:37:48;6.00;99.90
22813;DHT22;11573;51.334;3.244;2022-11-20T07:40:17;6.00;99.90
22813;DHT22;11573;51.334;3.244;2022-11-20T07:42:48;6.00;99.90
22813;DHT22;11573;51.334;3.244;2022-11-20T07:45:16;6.00;99.90
22813;DHT22;11573;51.334;3.244;2022-11-20T07:47:43;6.00;99.90
22813;DHT22;11573;51.334;3.244;2022-11-20T07:50:11;6.10;99.90
22813;DHT22;11573;51.334;3.244;2022-11-20T07:52:38;6.10;99.90
22813;DHT22;11573;51.334;3.244;2022-11-20T07:55:06;6.10;99.90
22813;DHT22;11573;51.334;3.244;2022-11-20T07:57:34;6.10;99.90
22813;DHT22;11573;51.334;3.244;2022-11-20T08:00:01;6.10;99.90
22813;DHT22;11573;51.334;3.244;2022-11-20T08:02:38;6.20;99.90
22813;DHT22;11573;51.334;3.244;2022-11-20T08:05:07;6.20;99.90
22813;DHT22;11573;51.334;3.244;2022-11-20T08:07:38;6.20;99.90
22813;DHT22;11573;51.334;3.244;2022-11-20T08:10:06;6.20;99.90
22813;DHT22;11573;51.334;3.244;2022-11-20T08:12:34;6.20;99.90
22813;DHT22;11573;51.334;3.244;2022-11-20T08:15:19;6.20;99.90
22813;DHT22;11573;51.334;3.244;2022-11-20T08:17:46;6.20;99.90
22813;DHT22;11573;51.334;3.244;2022-11-20T08:20:34;6.20;99.90
22813;DHT22;11573;51.334;3.244;2022-11-20T08:23:03;6.30;99.90
22813;DHT22;11573;51.334;3.244;2022-11-20T08:25:33;6.30;99.90
22813;DHT22;11573;51.334;3.244;2022-11-20T08:28:04;6.40;99.90
22813;DHT22;11573;51.334;3.244;2022-11-20T08:30:44;6.40;99.90
22813;DHT22;11573;51.334;3.244;2022-11-20T08:33:12;6.40;99.90
22813;DHT22;11573;51.334;3.244;2022-11-20T08:35:39;6.50;99.90
22813;DHT22;11573;51.334;3.244;2022-11-20T08:38:08;6.50;99.90
22813;DHT22;11573;51.334;3.244;2022-11-20T08:40:36;6.50;99.90
22813;DHT22;11573;51.334;3.244;2022-11-20T08:43:03;6.50;99.90
22813;DHT22;11573;51.334;3.244;2022-11-20T08:45:29;6.50;99.90
22813;DHT22;11573;51.334;3.244;2022-11-20T08:48:02;6.60;99.90
22813;DHT22;11573;51.334;3.244;2022-11-20T08:50:30;6.60;99.90
22813;DHT22;11573;51.334;3.244;2022-11-20T08:53:05;6.70;99.90
22813;DHT22;11573;51.334;3.244;2022-11-20T08:55:32;6.80;99.90
22813;DHT22;11573;51.334;3.244;2022-11-20T08:58:06;6.80;99.90
22813;DHT22;11573;51.334;3.244;2022-11-20T09:00:34;6.90;99.90
22813;DHT22;11573;51.334;3.244;2022-11-20T09:03:01;7.00;99.90
22813;DHT22;11573;51.334;3.244;2022-11-20T09:05:28;7.00;99.90
22813;DHT22;11573;51.334;3.244;2022-11-20T09:07:58;7.00;99.90
22813;DHT22;11573;51.334;3.244;2022-11-20T09:10:28;7.00;99.90
22813;DHT22;11573;51.334;3.244;2022-11-20T09:12:56;7.10;99.90
22813;DHT22;11573;51.334;3.244;2022-11-20T09:15:24;7.10;99.90
22813;DHT22;11573;51.334;3.244;2022-11-20T09:17:57;7.10;99.90
22813;DHT22;11573;51.334;3.244;2022-11-20T09:20:26;7.10;99.90
22813;DHT22;11573;51.334;3.244;2022-11-20T09:22:53;7.20;99.90
22813;DHT22;11573;51.334;3.244;2022-11-20T09:25:20;7.30;99.90
22813;DHT22;11573;51.334;3.244;2022-11-20T09:27:47;7.50;99.90
22813;DHT22;11573;51.334;3.244;2022-11-20T09:30:14;7.60;99.90
22813;DHT22;11573;51.334;3.244;2022-11-20T09:32:42;7.70;99.90
22813;DHT22;11573;51.334;3.244;2022-11-20T09:35:09;7.80;99.90
22813;DHT22;11573;51.334;3.244;2022-11-20T09:37:37;7.80;99.90
22813;DHT22;11573;51.334;3.244;2022-11-20T09:40:05;7.80;99.90
22813;DHT22;11573;51.334;3.244;2022-11-20T09:42:45;7.90;99.90
22813;DHT22;11573;51.334;3.244;2022-11-20T09:45:47;7.90;99.90
22813;DHT22;11573;51.334;3.244;2022-11-20T09:51:11;8.00;99.90
22813;DHT22;11573;51.334;3.244;2022-11-20T09:56:20;8.00;99.90
22813;DHT22;11573;51.334;3.244;2022-11-20T09:58:53;8.10;99.90
22813;DHT22;11573;51.334;3.244;2022-11-20T10:01:25;8.20;99.90
22813;DHT22;11573;51.334;3.244;2022-11-20T10:04:01;8.30;99.90
22813;DHT22;11573;51.334;3.244;2022-11-20T10:07:13;8.30;99.90
22813;DHT22;11573;51.334;3.244;2022-11-20T10:09:40;8.40;99.90
22813;DHT22;11573;51.334;3.244;2022-11-20T10:15:33;8.60;99.90
22813;DHT22;11573;51.334;3.244;2022-11-20T10:18:36;8.80;99.90
22813;DHT22;11573;51.334;3.244;2022-11-20T10:21:37;8.80;99.90
22813;DHT22;11573;51.334;3.244;2022-11-20T10:27:06;8.90;99.90
22813;DHT22;11573;51.334;3.244;2022-11-20T10:29:36;9.00;99.90
22813;DHT22;11573;51.334;3.244;2022-11-20T10:32:14;9.00;99.90
22813;DHT22;11573;51.334;3.244;2022-11-20T10:34:46;9.10;99.90
22813;DHT22;11573;51.334;3.244;2022-11-20T10:37:19;9.20;99.90
22813;DHT22;11573;51.334;3.244;2022-11-20T10:43:13;9.20;99.90
22813;DHT22;11573;51.334;3.244;2022-11-20T10:48:21;9.30;99.90
22813;DHT22;11573;51.334;3.244;2022-11-20T10:53:53;9.50;99.90
22813;DHT22;11573;51.334;3.244;2022-11-20T10:59:21;9.80;99.90
22813;DHT22;11573;51.334;3.244;2022-11-20T11:01:51;9.90;99.90
22813;DHT22;11573;51.334;3.244;2022-11-20T11:06:48;9.90;99.90
22813;DHT22;11573;51.334;3.244;2022-11-20T11:09:19;9.80;99.90
22813;DHT22;11573;51.334;3.244;2022-11-20T11:11:50;9.70;99.90
22813;DHT22;11573;51.334;3.244;2022-11-20T11:14:17;9.70;99.90
22813;DHT22;11573;51.334;3.244;2022-11-20T11:16:55;9.60;99.90
22813;DHT22;11573;51.334;3.244;2022-11-20T11:19:22;9.60;99.90
22813;DHT22;11573;51.334;3.244;2022-11-20T11:21:57;9.60;99.90
22813;DHT22;11573;51.334;3.244;2022-11-20T11:24:26;9.50;99.90
22813;DHT22;11573;51.334;3.244;2022-11-20T11:27:14;9.50;99.90
22813;DHT22;11573;51.334;3.244;2022-11-20T11:29:46;9.40;99.90
22813;DHT22;11573;51.334;3.244;2022-11-20T11:32:15;9.30;99.90
22813;DHT22;11573;51.334;3.244;2022-11-20T11:34:42;9.30;99.90
22813;DHT22;11573;51.334;3.244;2022-11-20T11:37:20;9.30;99.90
22813;DHT22;11573;51.334;3.244;2022-11-20T11:39:51;9.30;99.90
22813;DHT22;11573;51.334;3.244;2022-11-20T11:42:57;9.30;99.90
22813;DHT22;11573;51.334;3.244;2022-11-20T11:45:25;9.20;99.90
22813;DHT22;11573;51.334;3.244;2022-11-20T11:47:54;9.20;99.90
22813;DHT22;11573;51.334;3.244;2022-11-20T11:50:25;9.20;99.90
22813;DHT22;11573;51.334;3.244;2022-11-20T11:55:39;9.30;99.90
22813;DHT22;11573;51.334;3.244;2022-11-20T12:01:17;9.20;99.90
22813;DHT22;11573;51.334;3.244;2022-11-20T12:04:05;9.20;99.90
22813;DHT22;11573;51.334;3.244;2022-11-20T12:06:39;9.20;99.90
22813;DHT22;11573;51.334;3.244;2022-11-20T12:09:11;9.10;99.90
22813;DHT22;11573;51.334;3.244;2022-11-20T12:12:08;9.10;99.90
22813;DHT22;11573;51.334;3.244;2022-11-20T12:14:38;9.10;99.90
22813;DHT22;11573;51.334;3.244;2022-11-20T12:17:10;8.90;99.90
22813;DHT22;11573;51.334;3.244;2022-11-20T12:19:38;8.80;99.90
22813;DHT22;11573;51.334;3.244;2022-11-20T12:33:48;8.90;99.90
22813;DHT22;11573;51.334;3.244;2022-11-20T12:48:24;8.70;99.90
22813;DHT22;11573;51.334;3.244;2022-11-20T12:56:41;8.90;99.90
22813;DHT22;11573;51.334;3.244;2022-11-20T13:02:23;9.00;99.90
22813;DHT22;11573;51.334;3.244;2022-11-20T13:07:53;9.20;99.90
22813;DHT22;11573;51.334;3.244;2022-11-20T13:18:41;9.50;99.90
22813;DHT22;11573;51.334;3.244;2022-11-20T13:21:23;9.50;99.90
22813;DHT22;11573;51.334;3.244;2022-11-20T13:27:02;9.40;99.90
22813;DHT22;11573;51.334;3.244;2022-11-20T13:29:30;9.40;99.90
22813;DHT22;11573;51.334;3.244;2022-11-20T13:32:17;9.40;99.90
22813;DHT22;11573;51.334;3.244;2022-11-20T13:35:02;9.30;99.90
22813;DHT22;11573;51.334;3.244;2022-11-20T13:37:33;9.20;99.90
22813;DHT22;11573;51.334;3.244;2022-11-20T13:45:41;9.10;99.90
22813;DHT22;11573;51.334;3.244;2022-11-20T13:48:30;9.20;99.90
22813;DHT22;11573;51.334;3.244;2022-11-20T13:51:22;9.30;99.90
22813;DHT22;11573;51.334;3.244;2022-11-20T13:59:56;9.30;99.90
22813;DHT22;11573;51.334;3.244;2022-11-20T14:02:26;9.40;99.90
22813;DHT22;11573;51.334;3.244;2022-11-20T14:04:57;9.50;99.90
22813;DHT22;11573;51.334;3.244;2022-11-20T14:07:39;9.70;99.90
22813;DHT22;11573;51.334;3.244;2022-11-20T14:10:43;9.70;99.90
22813;DHT22;11573;51.334;3.244;2022-11-20T14:13:17;10.10;99.90
22813;DHT22;11573;51.334;3.244;2022-11-20T14:15:44;10.20;99.90
22813;DHT22;11573;51.334;3.244;2022-11-20T14:18:21;10.50;99.90
22813;DHT22;11573;51.334;3.244;2022-11-20T14:20:51;10.60;99.90
22813;DHT22;11573;51.334;3.244;2022-11-20T14:23:28;10.70;99.90
22813;DHT22;11573;51.334;3.244;2022-11-20T14:25:56;10.80;99.90
22813;DHT22;11573;51.334;3.244;2022-11-20T14:28:26;10.80;99.90
22813;DHT22;11573;51.334;3.244;2022-11-20T14:30:54;10.70;99.90
22813;DHT22;11573;51.334;3.244;2022-11-20T14:33:23;10.70;99.90
22813;DHT22;11573;51.334;3.244;2022-11-20T14:35:56;10.70;99.90
22813;DHT22;11573;51.334;3.244;2022-11-20T14:38:28;10.80;99.90
22813;DHT22;11573;51.334;3.244;2022-11-20T14:41:09;10.80;99.90
22813;DHT22;11573;51.334;3.244;2022-11-20T14:43:45;10.90;99.90
22813;DHT22;11573;51.334;3.244;2022-11-20T14:46:13;10.80;99.90
22813;DHT22;11573;51.334;3.244;2022-11-20T14:48:45;10.90;99.90
22813;DHT22;11573;51.334;3.244;2022-11-20T14:51:35;10.80;99.90
22813;DHT22;11573;51.334;3.244;2022-11-20T14:54:09;10.80;99.90
22813;DHT22;11573;51.334;3.244;2022-11-20T14:56:36;10.80;99.90
22813;DHT22;11573;51.334;3.244;2022-11-20T14:59:04;10.90;99.90
22813;DHT22;11573;51.334;3.244;2022-11-20T15:01:32;10.90;99.90
22813;DHT22;11573;51.334;3.244;2022-11-20T15:04:25;10.90;99.90
22813;DHT22;11573;51.334;3.244;2022-11-20T15:06:55;10.90;99.90
22813;DHT22;11573;51.334;3.244;2022-11-20T15:09:23;10.80;99.90
22813;DHT22;11573;51.334;3.244;2022-11-20T15:12:01;10.70;99.90
22813;DHT22;11573;51.334;3.244;2022-11-20T15:14:30;10.80;99.90
22813;DHT22;11573;51.334;3.244;2022-11-20T15:16:59;10.80;99.90
22813;DHT22;11573;51.334;3.244;2022-11-20T15:19:26;10.80;99.90
22813;DHT22;11573;51.334;3.244;2022-11-20T15:21:53;10.80;99.90
22813;DHT22;11573;51.334;3.244;2022-11-20T15:24:20;10.80;99.90
22813;DHT22;11573;51.334;3.244;2022-11-20T15:26:47;10.70;99.90
22813;DHT22;11573;51.334;3.244;2022-11-20T15:29:15;10.70;99.90
22813;DHT22;11573;51.334;3.244;2022-11-20T15:31:47;10.80;99.90
22813;DHT22;11573;51.334;3.244;2022-11-20T15:34:15;10.70;99.90
22813;DHT22;11573;51.334;3.244;2022-11-20T15:36:43;10.70;99.90
22813;DHT22;11573;51.334;3.244;2022-11-20T15:39:10;10.70;99.90
22813;DHT22;11573;51.334;3.244;2022-11-20T15:41:38;10.70;99.90
22813;DHT22;11573;51.334;3.244;2022-11-20T15:44:05;10.70;99.90
22813;DHT22;11573;51.334;3.244;2022-11-20T15:46:36;10.70;99.90
22813;DHT22;11573;51.334;3.244;2022-11-20T15:49:06;10.70;99.90
22813;DHT22;11573;51.334;3.244;2022-11-20T15:51:46;10.70;99.90
22813;DHT22;11573;51.334;3.244;2022-11-20T15:54:19;10.70;99.90
22813;DHT22;11573;51.334;3.244;2022-11-20T15:56:48;10.70;99.90
22813;DHT22;11573;51.334;3.244;2022-11-20T15:59:16;10.70;99.90
22813;DHT22;11573;51.334;3.244;2022-11-20T16:01:43;10.50;99.90
22813;DHT22;11573;51.334;3.244;2022-11-20T16:04:11;10.50;99.90
22813;DHT22;11573;51.334;3.244;2022-11-20T16:06:39;10.50;99.90
22813;DHT22;11573;51.334;3.244;2022-11-20T16:09:06;10.50;99.90
22813;DHT22;11573;51.334;3.244;2022-11-20T16:11:34;10.50;99.90
22813;DHT22;11573;51.334;3.244;2022-11-20T16:14:05;10.60;99.90
22813;DHT22;11573;51.334;3.244;2022-11-20T16:16:51;10.60;99.90
22813;DHT22;11573;51.334;3.244;2022-11-20T16:19:18;10.60;99.90
22813;DHT22;11573;51.334;3.244;2022-11-20T16:21:46;10.60;99.90
22813;DHT22;11573;51.334;3.244;2022-11-20T16:24:13;10.50;99.90
22813;DHT22;11573;51.334;3.244;2022-11-20T16:26:41;10.50;99.90
22813;DHT22;11573;51.334;3.244;2022-11-20T16:29:08;10.50;99.90
22813;DHT22;11573;51.334;3.244;2022-11-20T16:31:37;10.60;99.90
22813;DHT22;11573;51.334;3.244;2022-11-20T16:34:06;10.50;99.90
22813;DHT22;11573;51.334;3.244;2022-11-20T16:36:42;10.50;99.90
22813;DHT22;11573;51.334;3.244;2022-11-20T16:39:11;10.60;99.90
22813;DHT22;11573;51.334;3.244;2022-11-20T16:41:38;10.60;99.90
22813;DHT22;11573;51.334;3.244;2022-11-20T16:44:09;10.60;99.90
22813;DHT22;11573;51.334;3.244;2022-11-20T16:46:37;10.60;99.90
22813;DHT22;11573;51.334;3.244;2022-11-20T16:49:11;10.70;99.90
22813;DHT22;11573;51.334;3.244;2022-11-20T16:51:38;10.70;99.90
22813;DHT22;11573;51.334;3.244;2022-11-20T16:54:07;10.70;99.90
22813;DHT22;11573;51.334;3.244;2022-11-20T16:56:34;10.70;99.90
22813;DHT22;11573;51.334;3.244;2022-11-20T16:59:01;10.70;99.90
22813;DHT22;11573;51.334;3.244;2022-11-20T17:01:29;10.60;99.90
22813;DHT22;11573;51.334;3.244;2022-11-20T17:04:02;10.60;99.90
22813;DHT22;11573;51.334;3.244;2022-11-20T17:06:35;10.50;99.90
22813;DHT22;11573;51.334;3.244;2022-11-20T17:09:03;10.60;99.90
22813;DHT22;11573;51.334;3.244;2022-11-20T17:11:30;10.60;99.90
22813;DHT22;11573;51.334;3.244;2022-11-20T17:13:59;10.50;99.90
22813;DHT22;11573;51.334;3.244;2022-11-20T17:16:30;10.50;99.90
22813;DHT22;11573;51.334;3.244;2022-11-20T17:18:58;10.50;99.90
22813;DHT22;11573;51.334;3.244;2022-11-20T17:21:32;10.50;99.90
22813;DHT22;11573;51.334;3.244;2022-11-20T17:24:03;10.50;99.90
22813;DHT22;11573;51.334;3.244;2022-11-20T17:26:30;10.50;99.90
22813;DHT22;11573;51.334;3.244;2022-11-20T17:28:59;10.50;99.90
22813;DHT22;11573;51.334;3.244;2022-11-20T17:31:27;10.50;99.90
22813;DHT22;11573;51.334;3.244;2022-11-20T17:33:54;10.50;99.90
22813;DHT22;11573;51.334;3.244;2022-11-20T17:36:21;10.50;99.90
22813;DHT22;11573;51.334;3.244;2022-11-20T17:38:49;10.50;99.90
22813;DHT22;11573;51.334;3.244;2022-11-20T17:41:21;10.50;99.90